createdAt,value
2023-08-14T00:00:08.823Z,5.75
2023-08-14T00:02:41.792Z,6.20
2023-08-14T00:05:10.679Z,8.15
2023-08-14T00:07:40.566Z,7.15
2023-08-14T00:10:10.215Z,6.20
2023-08-14T00:12:38.821Z,13.10
2023-08-14T00:15:10.317Z,5.50
2023-08-14T00:17:38.949Z,5.22
2023-08-14T00:20:09.213Z,6.00
2023-08-14T00:22:39.297Z,6.88
2023-08-14T00:25:08.330Z,12.95
2023-08-14T00:27:37.131Z,6.72
2023-08-14T00:30:07.338Z,6.70
2023-08-14T00:32:36.104Z,6.35
2023-08-14T00:35:05.363Z,8.98
2023-08-14T00:37:52.964Z,6.00
2023-08-14T00:40:21.832Z,7.25
2023-08-14T00:42:50.560Z,5.97
2023-08-14T00:45:21.044Z,9.68
2023-08-14T00:47:52.043Z,6.80
2023-08-14T00:50:21.536Z,6.28
2023-08-14T00:52:55.967Z,7.45
2023-08-14T00:55:27.394Z,5.03
2023-08-14T00:57:57.068Z,7.45
2023-08-14T01:00:27.502Z,6.40
2023-08-14T01:02:56.820Z,4.88
2023-08-14T01:05:25.782Z,4.72
2023-08-14T01:07:57.041Z,9.23
2023-08-14T01:10:28.876Z,10.10
2023-08-14T01:13:06.527Z,7.40
2023-08-14T01:15:49.006Z,8.10
2023-08-14T01:18:21.529Z,7.72
2023-08-14T01:21:06.205Z,7.72
2023-08-14T01:23:51.622Z,6.03
2023-08-14T01:26:21.456Z,7.00
2023-08-14T01:28:51.105Z,6.95
2023-08-14T01:31:19.798Z,7.65
2023-08-14T01:33:48.454Z,5.93
2023-08-14T01:36:28.071Z,7.85
2023-08-14T01:39:07.394Z,7.85
2023-08-14T01:41:49.847Z,6.80
2023-08-14T01:44:23.083Z,7.38
2023-08-14T01:46:53.054Z,5.53
2023-08-14T01:49:22.549Z,7.15
2023-08-14T01:51:53.978Z,10.93
2023-08-14T01:54:22.883Z,9.63
2023-08-14T01:56:52.816Z,8.25
2023-08-14T01:59:30.188Z,8.98
2023-08-14T02:01:58.859Z,8.60
2023-08-14T02:04:27.528Z,7.97
2023-08-14T02:06:55.982Z,8.13
2023-08-14T02:09:24.321Z,8.40
2023-08-14T02:14:22.397Z,6.85
2023-08-14T02:16:51.120Z,7.75
2023-08-14T02:19:20.002Z,7.18
2023-08-14T02:21:49.398Z,9.13
2023-08-14T02:24:17.982Z,8.00
2023-08-14T02:26:46.698Z,9.98
2023-08-14T02:29:16.749Z,8.98
2023-08-14T02:31:46.999Z,12.23
2023-08-14T02:34:35.252Z,13.02
2023-08-14T02:37:04.187Z,11.25
2023-08-14T02:39:32.922Z,12.32
2023-08-14T02:42:01.720Z,11.32
2023-08-14T02:47:00.145Z,10.75
2023-08-14T02:49:30.159Z,9.02
2023-08-14T02:51:59.075Z,13.00
2023-08-14T02:54:27.449Z,11.80
2023-08-14T02:59:24.422Z,10.43
2023-08-14T03:01:54.209Z,10.93
2023-08-14T03:04:22.980Z,8.50
2023-08-14T03:06:51.713Z,12.50
2023-08-14T03:09:20.575Z,10.60
2023-08-14T03:11:49.511Z,10.00
2023-08-14T03:14:18.148Z,12.57
2023-08-14T03:16:46.877Z,10.07
2023-08-14T03:19:16.721Z,11.48
2023-08-14T03:21:45.038Z,9.85
2023-08-14T03:26:42.691Z,13.13
2023-08-14T03:29:15.802Z,11.77
2023-08-14T03:31:44.739Z,10.25
2023-08-14T03:34:13.207Z,10.93
2023-08-14T03:36:42.865Z,9.85
2023-08-14T03:39:12.583Z,11.90
2023-08-14T03:41:41.206Z,12.30
2023-08-14T03:44:09.997Z,13.60
2023-08-14T03:46:40.492Z,11.20
2023-08-14T03:49:10.899Z,11.48
2023-08-14T03:51:39.693Z,8.90
2023-08-14T03:54:10.182Z,13.55
2023-08-14T03:56:38.904Z,13.35
2023-08-14T03:59:08.418Z,11.85
2023-08-14T04:01:37.755Z,9.77
2023-08-14T04:04:07.104Z,10.95
2023-08-14T04:06:37.250Z,11.63
2023-08-14T04:09:06.862Z,10.57
2023-08-14T04:11:36.471Z,11.13
2023-08-14T04:14:05.366Z,11.48
2023-08-14T04:16:44.485Z,16.38
2023-08-14T04:19:16.844Z,13.07
2023-08-14T04:21:45.815Z,13.00
2023-08-14T04:24:14.789Z,12.02
2023-08-14T04:26:44.431Z,11.73
2023-08-14T04:29:16.633Z,9.93
2023-08-14T04:31:45.528Z,13.23
2023-08-14T04:34:14.427Z,13.48
2023-08-14T04:36:45.743Z,12.63
2023-08-14T04:39:15.851Z,11.38
2023-08-14T04:41:45.627Z,15.38
2023-08-14T04:44:14.345Z,11.85
2023-08-14T04:46:57.537Z,10.27
2023-08-14T04:49:28.710Z,9.52
2023-08-14T04:51:57.972Z,12.55
2023-08-14T04:54:28.212Z,11.55
2023-08-14T04:56:58.413Z,7.63
2023-08-14T04:59:27.219Z,10.35
2023-08-14T05:01:56.571Z,12.00
2023-08-14T05:04:26.824Z,10.40
2023-08-14T05:06:55.711Z,8.65
2023-08-14T05:09:27.813Z,9.82
2023-08-14T05:12:00.501Z,8.40
2023-08-14T05:14:29.353Z,12.52
2023-08-14T05:16:59.102Z,8.55
2023-08-14T05:19:27.564Z,10.77
2023-08-14T05:21:56.182Z,8.68
2023-08-14T05:24:24.622Z,8.27
2023-08-14T05:26:53.383Z,6.93
2023-08-14T05:29:23.053Z,7.53
2023-08-14T05:31:51.563Z,9.10
2023-08-14T05:34:20.298Z,9.60
2023-08-14T05:36:48.937Z,6.93
2023-08-14T05:39:19.587Z,6.05
2023-08-14T05:41:48.410Z,6.00
2023-08-14T05:44:16.737Z,8.45
2023-08-14T05:46:49.363Z,7.25
2023-08-14T05:49:18.378Z,7.85
2023-08-14T05:51:47.383Z,7.03
2023-08-14T05:54:16.123Z,6.85
2023-08-14T05:56:46.401Z,6.25
2023-08-14T05:59:15.149Z,8.15
2023-08-14T06:01:43.913Z,6.30
2023-08-14T06:04:13.798Z,7.30
2023-08-14T06:06:42.860Z,6.97
2023-08-14T06:09:11.099Z,7.10
2023-08-14T06:11:39.818Z,5.50
2023-08-14T06:14:08.480Z,8.32
2023-08-14T06:16:37.333Z,7.28
2023-08-14T06:19:06.466Z,5.57
2023-08-14T06:21:36.207Z,8.98
2023-08-14T06:24:05.485Z,8.85
2023-08-14T06:26:34.490Z,7.88
2023-08-14T06:29:03.325Z,7.63
2023-08-14T06:31:31.713Z,9.35
2023-08-14T06:33:59.965Z,10.02
2023-08-14T06:36:29.183Z,6.47
2023-08-14T06:38:59.163Z,7.32
2023-08-14T06:41:28.011Z,6.38
2023-08-14T06:43:56.713Z,8.27
2023-08-14T06:46:25.478Z,5.30
2023-08-14T06:48:54.263Z,4.88
2023-08-14T06:51:22.557Z,6.72
2023-08-14T06:53:52.413Z,6.97
2023-08-14T06:56:23.989Z,8.00
2023-08-14T06:58:52.710Z,6.65
2023-08-14T07:01:23.567Z,6.80
2023-08-14T07:03:52.739Z,5.03
2023-08-14T07:06:21.694Z,6.45
2023-08-14T07:08:50.064Z,6.22
2023-08-14T07:11:18.399Z,4.95
2023-08-14T07:13:49.040Z,7.30
2023-08-14T07:16:17.873Z,10.32
2023-08-14T07:18:46.337Z,4.47
2023-08-14T07:21:15.074Z,4.70
2023-08-14T07:23:43.828Z,9.82
2023-08-14T07:26:13.612Z,5.22
2023-08-14T07:28:42.528Z,6.22
2023-08-14T07:31:12.765Z,6.65
2023-08-14T07:33:41.506Z,4.80
2023-08-14T07:36:09.905Z,6.30
2023-08-14T07:38:38.627Z,7.43
2023-08-14T07:41:07.094Z,7.28
2023-08-14T07:43:35.786Z,5.88
2023-08-14T07:46:04.660Z,7.28
2023-08-14T07:48:34.546Z,6.63
2023-08-14T07:51:03.225Z,7.20
2023-08-14T07:53:31.653Z,6.30
2023-08-14T07:56:00.024Z,6.47
2023-08-14T07:58:28.462Z,6.47
2023-08-14T08:00:57.126Z,7.25
2023-08-14T08:03:26.352Z,7.07
2023-08-14T08:05:56.059Z,7.20
2023-08-14T08:08:24.780Z,4.70
2023-08-14T08:10:55.443Z,4.82
2023-08-14T08:13:23.982Z,6.53
2023-08-14T08:15:52.378Z,7.05
2023-08-14T08:18:20.940Z,6.78
2023-08-14T08:20:49.674Z,5.60
2023-08-14T08:23:19.545Z,8.15
2023-08-14T08:25:48.009Z,5.75
2023-08-14T08:28:16.505Z,6.38
2023-08-14T08:30:45.389Z,6.30
2023-08-14T08:33:14.513Z,5.45
2023-08-14T08:35:43.188Z,6.85
2023-08-14T08:38:11.959Z,6.15
2023-08-14T08:40:48.025Z,5.07
2023-08-14T08:43:17.184Z,6.70
2023-08-14T08:45:51.329Z,5.55
2023-08-14T08:48:24.586Z,8.70
2023-08-14T08:50:54.128Z,6.07
2023-08-14T08:53:23.545Z,5.97
2023-08-14T08:55:53.776Z,4.82
2023-08-14T08:58:22.559Z,4.82
2023-08-14T09:00:51.180Z,5.00
2023-08-14T09:03:20.312Z,5.72
2023-08-14T09:05:48.928Z,3.92
2023-08-14T09:08:17.485Z,4.78
2023-08-14T09:10:45.897Z,8.13
2023-08-14T09:13:16.320Z,7.72
2023-08-14T09:15:46.587Z,5.97
2023-08-14T09:18:15.036Z,4.60
2023-08-14T09:20:44.255Z,6.10
2023-08-14T09:23:14.212Z,5.70
2023-08-14T09:25:43.510Z,9.25
2023-08-14T09:28:12.558Z,6.00
2023-08-14T09:30:43.112Z,7.45
2023-08-14T09:33:14.215Z,6.47
2023-08-14T09:35:43.069Z,5.30
2023-08-14T09:38:14.083Z,6.25
2023-08-14T09:40:44.771Z,4.35
2023-08-14T09:43:13.621Z,7.45
2023-08-14T09:45:43.503Z,6.82
2023-08-14T09:48:11.933Z,4.78
2023-08-14T09:50:40.537Z,4.78
2023-08-14T09:53:10.007Z,3.72
2023-08-14T09:55:39.499Z,5.35
2023-08-14T09:58:08.024Z,6.15
2023-08-14T10:00:38.419Z,4.15
2023-08-14T10:03:10.538Z,9.75
2023-08-14T10:05:40.058Z,5.55
2023-08-14T10:08:10.832Z,5.32
2023-08-14T10:10:41.364Z,5.35
2023-08-14T10:13:12.002Z,4.22
2023-08-14T10:15:45.517Z,4.85
2023-08-14T10:18:18.256Z,5.43
2023-08-14T10:20:49.578Z,6.50
2023-08-14T10:23:20.584Z,3.92
2023-08-14T10:25:51.846Z,5.35
2023-08-14T10:28:22.466Z,5.55
2023-08-14T10:30:51.035Z,4.97
2023-08-14T10:33:22.159Z,4.20
2023-08-14T10:35:52.054Z,4.40
2023-08-14T10:38:25.361Z,7.10
2023-08-14T10:40:59.696Z,4.72
2023-08-14T10:43:30.847Z,3.15
2023-08-14T10:45:59.291Z,7.35
2023-08-14T10:48:36.519Z,4.35
2023-08-14T10:51:07.757Z,4.90
2023-08-14T10:53:36.295Z,7.00
2023-08-14T10:56:07.501Z,8.30
2023-08-14T10:58:49.257Z,4.30
2023-08-14T11:01:19.155Z,6.18
2023-08-14T11:04:04.608Z,5.32
2023-08-14T11:07:03.552Z,5.47
2023-08-14T11:09:35.844Z,5.63
2023-08-14T11:12:07.542Z,4.88
2023-08-14T11:14:39.446Z,3.92
2023-08-14T11:17:08.235Z,8.57
2023-08-14T11:19:39.034Z,5.60
2023-08-14T11:22:08.296Z,4.00
2023-08-14T11:24:38.252Z,4.60
2023-08-14T11:27:07.458Z,3.30
2023-08-14T11:29:51.705Z,3.40
2023-08-14T11:32:22.198Z,6.28
2023-08-14T11:34:53.292Z,4.45
2023-08-14T11:37:21.834Z,5.05
2023-08-14T11:39:50.551Z,5.28
2023-08-14T11:42:19.348Z,4.95
2023-08-14T11:44:48.590Z,6.10
2023-08-14T11:47:17.496Z,6.30
2023-08-14T11:49:46.556Z,4.80
2023-08-14T11:52:16.809Z,5.38
2023-08-14T11:54:48.367Z,5.38
2023-08-14T11:57:16.766Z,6.97
2023-08-14T11:59:46.274Z,5.00
2023-08-14T12:02:14.844Z,3.90
2023-08-14T12:04:44.568Z,3.97
2023-08-14T12:07:13.149Z,4.28
2023-08-14T12:09:44.475Z,6.38
2023-08-14T12:12:14.399Z,6.13
2023-08-14T12:14:46.134Z,6.10
2023-08-14T12:17:20.171Z,4.90
2023-08-14T12:19:53.998Z,4.07
2023-08-14T12:22:24.086Z,4.05
2023-08-14T12:24:55.773Z,5.15
2023-08-14T12:27:26.634Z,5.00
2023-08-14T12:29:57.258Z,4.55
2023-08-14T12:32:27.080Z,5.00
2023-08-14T12:34:56.185Z,5.93
2023-08-14T12:37:24.616Z,4.80
2023-08-14T12:39:55.975Z,5.25
2023-08-14T12:42:24.528Z,5.22
2023-08-14T12:44:54.878Z,4.78
2023-08-14T12:47:24.300Z,4.38
2023-08-14T12:49:53.649Z,4.47
2023-08-14T12:52:22.086Z,4.15
2023-08-14T12:55:04.699Z,5.60
2023-08-14T12:57:36.030Z,5.90
2023-08-14T13:00:06.199Z,7.32
2023-08-14T13:02:34.791Z,4.13
2023-08-14T13:05:03.288Z,4.47
2023-08-14T13:07:33.366Z,5.90
2023-08-14T13:10:02.104Z,6.05
2023-08-14T13:12:30.683Z,4.72
2023-08-14T13:15:00.852Z,4.57
2023-08-14T13:17:29.502Z,6.60
2023-08-14T13:19:58.451Z,5.90
2023-08-14T13:22:27.907Z,4.25
2023-08-14T13:24:56.486Z,4.80
2023-08-14T13:27:25.132Z,5.32
2023-08-14T13:29:53.890Z,4.43
2023-08-14T13:32:23.976Z,4.20
2023-08-14T13:34:52.444Z,5.03
2023-08-14T13:37:21.484Z,4.47
2023-08-14T13:39:49.902Z,6.47
2023-08-14T13:42:18.767Z,5.03
2023-08-14T13:44:47.559Z,5.57
2023-08-14T13:47:18.342Z,4.72
2023-08-14T13:49:48.755Z,5.10
2023-08-14T13:52:17.582Z,6.18
2023-08-14T13:54:51.313Z,6.88
2023-08-14T13:59:48.329Z,9.38
2023-08-14T14:02:16.706Z,5.68
2023-08-14T14:04:45.442Z,5.10
2023-08-14T14:07:18.330Z,5.57
2023-08-14T14:09:48.813Z,6.63
2023-08-14T14:12:17.368Z,7.03
2023-08-14T14:14:45.811Z,4.97
2023-08-14T14:17:14.434Z,3.85
2023-08-14T14:19:43.054Z,6.28
2023-08-14T14:22:11.753Z,4.60
2023-08-14T14:24:41.612Z,6.15
2023-08-14T14:27:10.158Z,5.38
2023-08-14T14:29:38.692Z,4.60
2023-08-14T14:32:08.175Z,4.70
2023-08-14T14:34:36.643Z,5.15
2023-08-14T14:37:05.377Z,5.72
2023-08-14T14:39:33.730Z,3.92
2023-08-14T14:42:06.480Z,4.03
2023-08-14T14:44:36.058Z,4.70
2023-08-14T14:47:05.206Z,5.47
2023-08-14T14:49:33.631Z,4.30
2023-08-14T14:52:03.231Z,4.97
2023-08-14T14:54:31.700Z,4.50
2023-08-14T14:57:00.106Z,11.00
2023-08-14T14:59:29.854Z,4.68
2023-08-14T15:01:58.994Z,3.58
2023-08-14T15:04:30.585Z,4.43
2023-08-14T15:07:00.162Z,5.90
2023-08-14T15:09:29.991Z,4.15
2023-08-14T15:11:58.769Z,6.03
2023-08-14T15:14:27.149Z,3.60
2023-08-14T15:16:56.919Z,5.07
2023-08-14T15:19:27.503Z,6.68
2023-08-14T15:21:56.220Z,6.35
2023-08-14T15:24:24.912Z,4.63
2023-08-14T15:26:53.595Z,4.50
2023-08-14T15:29:22.546Z,5.70
2023-08-14T15:31:51.049Z,5.55
2023-08-14T15:34:20.853Z,4.63
2023-08-14T15:36:49.506Z,5.57
2023-08-14T15:39:18.034Z,6.75
2023-08-14T15:41:46.449Z,3.88
2023-08-14T15:44:15.166Z,3.75
2023-08-14T15:46:43.693Z,4.70
2023-08-14T15:49:12.259Z,4.93
2023-08-14T15:51:41.999Z,4.35
2023-08-14T15:54:10.627Z,3.65
2023-08-14T15:56:39.298Z,4.80
2023-08-14T15:59:07.688Z,3.80
2023-08-14T16:01:36.149Z,5.68
2023-08-14T16:04:04.921Z,4.20
2023-08-14T16:06:33.823Z,5.47
2023-08-14T16:09:04.383Z,3.95
2023-08-14T16:11:32.764Z,4.32
2023-08-14T16:14:01.806Z,5.20
2023-08-14T16:16:30.599Z,3.88
2023-08-14T16:18:59.168Z,4.65
2023-08-14T16:21:28.239Z,4.63
2023-08-14T16:23:56.971Z,4.88
2023-08-14T16:26:26.923Z,5.38
2023-08-14T16:28:55.315Z,4.03
2023-08-14T16:31:24.096Z,4.65
2023-08-14T16:33:52.561Z,4.15
2023-08-14T16:36:22.524Z,6.22
2023-08-14T16:38:51.109Z,5.38
2023-08-14T16:41:19.552Z,3.55
2023-08-14T16:43:49.526Z,4.50
2023-08-14T16:46:17.931Z,3.42
2023-08-14T16:48:48.511Z,4.22
2023-08-14T16:51:16.841Z,5.63
2023-08-14T16:53:45.558Z,5.38
2023-08-14T16:56:14.395Z,3.55
2023-08-14T16:58:43.332Z,4.95
2023-08-14T17:01:13.393Z,3.83
2023-08-14T17:03:41.904Z,3.58
2023-08-14T17:06:10.440Z,7.00
2023-08-14T17:08:39.426Z,4.47
2023-08-14T17:11:08.374Z,5.63
2023-08-14T17:13:36.749Z,3.92
2023-08-14T17:16:07.239Z,3.90
2023-08-14T17:18:37.141Z,3.67
2023-08-14T17:21:05.807Z,3.67
2023-08-14T17:23:34.146Z,5.53
2023-08-14T17:26:02.773Z,4.47
2023-08-14T17:28:31.123Z,4.65
2023-08-14T17:31:00.660Z,4.38
2023-08-14T17:33:29.498Z,4.90
2023-08-14T17:36:00.559Z,5.07
2023-08-14T17:38:29.511Z,5.65
2023-08-14T17:40:58.161Z,6.22
2023-08-14T17:43:26.527Z,6.53
2023-08-14T17:45:55.527Z,4.55
2023-08-14T17:48:24.349Z,5.60
2023-08-14T17:50:53.576Z,5.22
2023-08-14T17:53:25.544Z,7.22
2023-08-14T17:55:53.867Z,3.00
2023-08-14T17:58:23.529Z,5.47
2023-08-14T18:00:52.576Z,6.35
2023-08-14T18:03:21.173Z,9.18
2023-08-14T18:05:53.454Z,6.50
2023-08-14T18:08:23.624Z,4.85
2023-08-14T18:10:52.060Z,4.72
2023-08-14T18:13:20.787Z,4.15
2023-08-14T18:15:52.345Z,6.60
2023-08-14T18:18:20.685Z,5.35
2023-08-14T18:20:53.300Z,6.70
2023-08-14T18:23:23.710Z,6.75
2023-08-14T18:25:55.584Z,5.95
2023-08-14T18:28:24.942Z,3.42
2023-08-14T18:30:53.862Z,5.55
2023-08-14T18:33:22.321Z,4.82
2023-08-14T18:35:51.037Z,9.48
2023-08-14T18:38:19.367Z,8.70
2023-08-14T18:40:50.117Z,7.15
2023-08-14T18:43:18.804Z,6.13
2023-08-14T18:45:47.161Z,7.32
2023-08-14T18:48:16.398Z,5.82
2023-08-14T18:50:44.910Z,5.28
2023-08-14T18:53:14.400Z,5.95
2023-08-14T18:55:43.064Z,7.35
2023-08-14T18:58:12.758Z,7.00
2023-08-14T19:00:42.940Z,6.30
2023-08-14T19:03:11.669Z,5.47
2023-08-14T19:05:40.508Z,6.45
2023-08-14T19:08:10.829Z,7.85
2023-08-14T19:10:39.643Z,8.20
2023-08-14T19:13:08.357Z,6.68
2023-08-14T19:15:38.472Z,12.18
2023-08-14T19:18:07.145Z,9.88
2023-08-14T19:20:36.070Z,7.25
2023-08-14T19:23:04.820Z,7.57
2023-08-14T19:25:33.494Z,8.40
2023-08-14T19:28:08.071Z,9.70
2023-08-14T19:30:45.773Z,8.82
2023-08-14T19:33:15.019Z,6.80
2023-08-14T19:35:44.027Z,9.75
2023-08-14T19:38:12.515Z,6.57
2023-08-14T19:40:41.394Z,10.52
2023-08-14T19:43:10.053Z,10.38
2023-08-14T19:45:39.580Z,9.23
2023-08-14T19:48:09.458Z,8.25
2023-08-14T19:50:38.161Z,11.27
2023-08-14T19:53:06.595Z,7.68
2023-08-14T19:55:40.311Z,10.30
2023-08-14T19:58:09.160Z,7.03
2023-08-14T20:00:37.909Z,7.68
2023-08-14T20:03:08.824Z,9.27
2023-08-14T20:05:37.824Z,10.98
2023-08-14T20:08:07.961Z,9.02
2023-08-14T20:10:36.678Z,8.85
2023-08-14T20:13:06.444Z,8.02
2023-08-14T20:15:35.526Z,11.43
2023-08-14T20:18:04.489Z,11.05
2023-08-14T20:20:36.494Z,9.93
2023-08-14T20:23:05.366Z,9.82
2023-08-14T20:25:35.193Z,10.35
2023-08-14T20:28:04.368Z,9.88
2023-08-14T20:30:39.508Z,10.10
2023-08-14T20:33:08.618Z,8.27
2023-08-14T20:35:42.776Z,10.45
2023-08-14T20:38:11.870Z,9.45
2023-08-14T20:40:41.254Z,10.27
2023-08-14T20:43:12.618Z,8.95
2023-08-14T20:45:42.749Z,9.70
2023-08-14T20:48:12.421Z,11.95
2023-08-14T20:50:47.280Z,9.52
2023-08-14T20:53:16.850Z,8.80
2023-08-14T20:55:45.920Z,9.48
2023-08-14T20:58:14.311Z,9.38
2023-08-14T21:00:46.402Z,14.32
2023-08-14T21:03:17.494Z,11.43
2023-08-14T21:05:48.006Z,11.52
2023-08-14T21:08:17.286Z,10.10
2023-08-14T21:10:46.429Z,12.82
2023-08-14T21:13:15.066Z,12.95
2023-08-14T21:15:43.748Z,15.13
2023-08-14T21:18:12.646Z,10.90
2023-08-14T21:20:44.465Z,12.35
2023-08-14T21:23:14.199Z,13.73
2023-08-14T21:25:47.844Z,14.25
2023-08-14T21:28:17.220Z,13.70
2023-08-14T21:30:45.804Z,14.43
2023-08-14T21:33:14.849Z,13.80
2023-08-14T21:35:43.135Z,16.40
2023-08-14T21:38:11.494Z,14.13
2023-08-14T21:40:41.808Z,13.15
2023-08-14T21:43:10.400Z,13.40
2023-08-14T21:45:41.255Z,14.50
2023-08-14T21:48:10.143Z,14.98
2023-08-14T21:50:38.940Z,15.27
2023-08-14T21:53:07.704Z,15.77
2023-08-14T21:55:36.637Z,16.15
2023-08-14T21:58:06.834Z,15.18
2023-08-14T22:00:36.700Z,13.65
2023-08-14T22:03:05.873Z,14.07
2023-08-14T22:05:34.267Z,13.70
2023-08-14T22:08:03.250Z,13.65
2023-08-14T22:10:31.703Z,16.38
2023-08-14T22:13:00.724Z,15.23
2023-08-14T22:18:06.586Z,17.83
2023-08-14T22:20:35.267Z,16.23
2023-08-14T22:23:04.150Z,13.27
2023-08-14T22:25:32.964Z,16.70
2023-08-14T22:28:01.642Z,12.40
2023-08-14T22:30:31.293Z,14.57
2023-08-14T22:33:00.624Z,12.10
2023-08-14T22:35:28.995Z,10.25
2023-08-14T22:37:58.769Z,13.48
2023-08-14T22:40:27.546Z,13.13
2023-08-14T22:42:56.552Z,11.15
2023-08-14T22:45:25.865Z,12.93
2023-08-14T22:47:55.821Z,13.30
2023-08-14T22:50:24.465Z,13.98
2023-08-14T22:52:53.178Z,15.93
2023-08-14T22:55:21.533Z,13.07
2023-08-14T22:57:50.677Z,13.05
2023-08-14T23:00:19.152Z,12.45
2023-08-14T23:02:47.491Z,12.20
2023-08-14T23:05:17.700Z,14.00
2023-08-14T23:07:46.081Z,15.15
2023-08-14T23:10:14.677Z,15.15
2023-08-14T23:12:43.126Z,16.88
2023-08-14T23:15:12.381Z,17.08
2023-08-14T23:17:40.888Z,15.30
2023-08-14T23:20:10.585Z,15.93
2023-08-14T23:22:40.299Z,14.60
2023-08-14T23:25:11.603Z,14.48
2023-08-14T23:27:40.080Z,14.02
2023-08-14T23:30:09.823Z,16.88
2023-08-14T23:32:38.679Z,17.10
2023-08-14T23:35:08.943Z,15.35
2023-08-14T23:37:39.355Z,15.30
2023-08-14T23:40:10.420Z,16.23
2023-08-14T23:42:40.442Z,15.00
2023-08-14T23:45:09.709Z,16.27
2023-08-14T23:47:38.593Z,18.48
2023-08-14T23:50:08.755Z,19.23
2023-08-14T23:52:38.825Z,18.95
2023-08-14T23:55:08.800Z,17.95
2023-08-14T23:57:37.526Z,17.88
